sensor_id;sensor_type;location;lat;lon;timestamp;temperature;humidity
9901;DHT22;4989;48.772;9.154;2023-07-30T00:04:17;19.40;99.90
9901;DHT22;4989;48.772;9.154;2023-07-30T00:09:23;19.40;99.90
9901;DHT22;4989;48.772;9.154;2023-07-30T00:14:27;19.40;99.90
9901;DHT22;4989;48.772;9.154;2023-07-30T00:19:32;19.20;99.90
9901;DHT22;4989;48.772;9.154;2023-07-30T00:24:40;19.20;99.90
9901;DHT22;4989;48.772;9.154;2023-07-30T00:29:46;18.90;99.90
9901;DHT22;4989;48.772;9.154;2023-07-30T00:34:48;18.90;99.90
9901;DHT22;4989;48.772;9.154;2023-07-30T00:39:56;19.20;99.90
9901;DHT22;4989;48.772;9.154;2023-07-30T00:44:58;20.10;99.90
9901;DHT22;4989;48.772;9.154;2023-07-30T00:50:01;20.70;99.90
9901;DHT22;4989;48.772;9.154;2023-07-30T01:00:37;20.20;99.90
9901;DHT22;4989;48.772;9.154;2023-07-30T01:05:50;20.30;99.90
9901;DHT22;4989;48.772;9.154;2023-07-30T01:10:57;20.20;99.90
9901;DHT22;4989;48.772;9.154;2023-07-30T01:16:00;20.90;99.90
9901;DHT22;4989;48.772;9.154;2023-07-30T01:21:02;20.50;99.90
9901;DHT22;4989;48.772;9.154;2023-07-30T01:26:10;20.30;99.90
9901;DHT22;4989;48.772;9.154;2023-07-30T01:31:25;20.90;99.90
9901;DHT22;4989;48.772;9.154;2023-07-30T01:36:34;21.30;99.90
9901;DHT22;4989;48.772;9.154;2023-07-30T01:41:37;20.60;99.90
9901;DHT22;4989;48.772;9.154;2023-07-30T01:46:44;20.40;99.90
9901;DHT22;4989;48.772;9.154;2023-07-30T01:51:48;20.20;99.90
9901;DHT22;4989;48.772;9.154;2023-07-30T01:56:52;19.90;99.90
9901;DHT22;4989;48.772;9.154;2023-07-30T02:01:56;20.30;99.90
9901;DHT22;4989;48.772;9.154;2023-07-30T02:06:58;21.00;99.90
9901;DHT22;4989;48.772;9.154;2023-07-30T02:12:02;21.20;99.90
9901;DHT22;4989;48.772;9.154;2023-07-30T02:17:04;21.00;99.90
9901;DHT22;4989;48.772;9.154;2023-07-30T02:22:07;20.60;99.90
9901;DHT22;4989;48.772;9.154;2023-07-30T02:27:09;20.40;99.90
9901;DHT22;4989;48.772;9.154;2023-07-30T02:32:11;20.20;99.90
9901;DHT22;4989;48.772;9.154;2023-07-30T02:37:14;20.20;99.90
9901;DHT22;4989;48.772;9.154;2023-07-30T02:42:16;20.70;99.90
9901;DHT22;4989;48.772;9.154;2023-07-30T02:47:18;20.70;99.90
9901;DHT22;4989;48.772;9.154;2023-07-30T02:52:20;20.50;99.90
9901;DHT22;4989;48.772;9.154;2023-07-30T02:57:23;20.50;99.90
9901;DHT22;4989;48.772;9.154;2023-07-30T03:02:25;20.70;99.90
9901;DHT22;4989;48.772;9.154;2023-07-30T03:07:28;20.90;99.90
9901;DHT22;4989;48.772;9.154;2023-07-30T03:12:30;21.20;99.90
9901;DHT22;4989;48.772;9.154;2023-07-30T03:17:32;21.30;99.90
9901;DHT22;4989;48.772;9.154;2023-07-30T03:22:35;21.00;99.90
9901;DHT22;4989;48.772;9.154;2023-07-30T03:27:37;21.10;99.90
9901;DHT22;4989;48.772;9.154;2023-07-30T03:32:39;21.50;99.90
9901;DHT22;4989;48.772;9.154;2023-07-30T03:37:42;21.60;99.90
9901;DHT22;4989;48.772;9.154;2023-07-30T03:42:45;21.60;99.90
9901;DHT22;4989;48.772;9.154;2023-07-30T03:47:48;21.50;99.90
9901;DHT22;4989;48.772;9.154;2023-07-30T03:52:50;21.30;99.90
9901;DHT22;4989;48.772;9.154;2023-07-30T03:57:52;21.20;99.90
9901;DHT22;4989;48.772;9.154;2023-07-30T04:02:55;21.50;99.90
9901;DHT22;4989;48.772;9.154;2023-07-30T04:07:57;21.10;99.90
9901;DHT22;4989;48.772;9.154;2023-07-30T04:12:59;21.50;99.90
9901;DHT22;4989;48.772;9.154;2023-07-30T04:18:02;21.60;99.90
9901;DHT22;4989;48.772;9.154;2023-07-30T04:23:04;21.10;99.90
9901;DHT22;4989;48.772;9.154;2023-07-30T04:28:07;20.70;99.90
9901;DHT22;4989;48.772;9.154;2023-07-30T04:33:10;20.50;99.90
9901;DHT22;4989;48.772;9.154;2023-07-30T04:38:14;20.60;99.90
9901;DHT22;4989;48.772;9.154;2023-07-30T04:43:17;20.40;99.90
9901;DHT22;4989;48.772;9.154;2023-07-30T04:48:22;20.10;99.90
9901;DHT22;4989;48.772;9.154;2023-07-30T04:53:24;20.20;99.90
9901;DHT22;4989;48.772;9.154;2023-07-30T04:58:28;21.00;99.90
9901;DHT22;4989;48.772;9.154;2023-07-30T05:03:30;21.20;99.90
9901;DHT22;4989;48.772;9.154;2023-07-30T05:08:33;20.70;99.90
9901;DHT22;4989;48.772;9.154;2023-07-30T05:13:35;20.60;99.90
9901;DHT22;4989;48.772;9.154;2023-07-30T05:18:37;21.20;99.90
9901;DHT22;4989;48.772;9.154;2023-07-30T05:23:39;21.70;99.90
9901;DHT22;4989;48.772;9.154;2023-07-30T05:28:41;21.90;99.90
9901;DHT22;4989;48.772;9.154;2023-07-30T05:33:44;21.90;99.90
9901;DHT22;4989;48.772;9.154;2023-07-30T05:38:46;21.10;99.90
9901;DHT22;4989;48.772;9.154;2023-07-30T05:43:49;21.30;99.90
9901;DHT22;4989;48.772;9.154;2023-07-30T05:48:51;21.00;99.90
9901;DHT22;4989;48.772;9.154;2023-07-30T05:53:53;21.10;99.90
9901;DHT22;4989;48.772;9.154;2023-07-30T05:58:55;20.90;99.90
9901;DHT22;4989;48.772;9.154;2023-07-30T06:03:57;21.00;99.90
9901;DHT22;4989;48.772;9.154;2023-07-30T06:09:00;20.60;99.90
9901;DHT22;4989;48.772;9.154;2023-07-30T06:14:02;20.90;99.90
9901;DHT22;4989;48.772;9.154;2023-07-30T06:19:04;21.20;99.90
9901;DHT22;4989;48.772;9.154;2023-07-30T06:24:07;21.30;99.90
9901;DHT22;4989;48.772;9.154;2023-07-30T06:29:09;20.80;99.90
9901;DHT22;4989;48.772;9.154;2023-07-30T06:34:11;20.70;99.90
9901;DHT22;4989;48.772;9.154;2023-07-30T06:39:13;20.80;99.90
9901;DHT22;4989;48.772;9.154;2023-07-30T06:44:16;20.40;99.90
9901;DHT22;4989;48.772;9.154;2023-07-30T06:49:18;20.20;99.90
9901;DHT22;4989;48.772;9.154;2023-07-30T06:54:20;20.10;99.90
9901;DHT22;4989;48.772;9.154;2023-07-30T06:59:25;20.20;99.90
9901;DHT22;4989;48.772;9.154;2023-07-30T07:04:27;20.30;99.90
9901;DHT22;4989;48.772;9.154;2023-07-30T07:09:30;20.50;99.90
9901;DHT22;4989;48.772;9.154;2023-07-30T07:14:32;20.30;99.90
9901;DHT22;4989;48.772;9.154;2023-07-30T07:19:34;20.20;99.90
9901;DHT22;4989;48.772;9.154;2023-07-30T07:24:38;20.10;99.90
9901;DHT22;4989;48.772;9.154;2023-07-30T07:29:40;20.10;99.90
9901;DHT22;4989;48.772;9.154;2023-07-30T07:34:50;20.10;99.90
9901;DHT22;4989;48.772;9.154;2023-07-30T07:39:52;20.00;99.90
9901;DHT22;4989;48.772;9.154;2023-07-30T07:44:54;19.80;99.90
9901;DHT22;4989;48.772;9.154;2023-07-30T07:49:56;20.40;99.90
9901;DHT22;4989;48.772;9.154;2023-07-30T07:54:59;20.80;99.90
9901;DHT22;4989;48.772;9.154;2023-07-30T08:00:01;20.50;99.90
9901;DHT22;4989;48.772;9.154;2023-07-30T08:05:13;20.60;99.90
9901;DHT22;4989;48.772;9.154;2023-07-30T08:10:16;21.10;99.90
9901;DHT22;4989;48.772;9.154;2023-07-30T08:15:19;21.20;99.90
9901;DHT22;4989;48.772;9.154;2023-07-30T08:20:21;21.20;99.90
9901;DHT22;4989;48.772;9.154;2023-07-30T08:25:23;21.70;99.90
9901;DHT22;4989;48.772;9.154;2023-07-30T08:30:25;21.50;99.90
9901;DHT22;4989;48.772;9.154;2023-07-30T08:35:28;22.30;99.90
9901;DHT22;4989;48.772;9.154;2023-07-30T08:40:31;21.70;99.90
9901;DHT22;4989;48.772;9.154;2023-07-30T08:45:34;21.90;99.90
9901;DHT22;4989;48.772;9.154;2023-07-30T08:50:36;21.90;99.90
9901;DHT22;4989;48.772;9.154;2023-07-30T08:55:40;22.50;99.90
9901;DHT22;4989;48.772;9.154;2023-07-30T09:00:43;22.90;99.90
9901;DHT22;4989;48.772;9.154;2023-07-30T09:05:47;23.10;99.90
9901;DHT22;4989;48.772;9.154;2023-07-30T09:10:50;23.20;99.90
9901;DHT22;4989;48.772;9.154;2023-07-30T09:15:53;22.90;99.90
9901;DHT22;4989;48.772;9.154;2023-07-30T09:20:55;23.50;99.90
9901;DHT22;4989;48.772;9.154;2023-07-30T09:26:00;23.50;99.90
9901;DHT22;4989;48.772;9.154;2023-07-30T09:31:04;23.20;99.90
9901;DHT22;4989;48.772;9.154;2023-07-30T09:36:22;22.90;99.90
9901;DHT22;4989;48.772;9.154;2023-07-30T09:41:25;22.80;99.90
9901;DHT22;4989;48.772;9.154;2023-07-30T09:46:29;22.60;99.90
9901;DHT22;4989;48.772;9.154;2023-07-30T09:51:32;22.80;99.90
9901;DHT22;4989;48.772;9.154;2023-07-30T09:56:38;22.80;99.90
9901;DHT22;4989;48.772;9.154;2023-07-30T10:01:46;23.40;99.90
9901;DHT22;4989;48.772;9.154;2023-07-30T10:07:04;23.80;99.90
9901;DHT22;4989;48.772;9.154;2023-07-30T10:12:16;22.90;98.40
9901;DHT22;4989;48.772;9.154;2023-07-30T10:17:19;23.10;99.90
9901;DHT22;4989;48.772;9.154;2023-07-30T10:22:24;23.40;99.90
9901;DHT22;4989;48.772;9.154;2023-07-30T10:27:35;23.30;99.90
9901;DHT22;4989;48.772;9.154;2023-07-30T10:32:42;23.50;99.90
9901;DHT22;4989;48.772;9.154;2023-07-30T10:38:12;24.10;93.40
9901;DHT22;4989;48.772;9.154;2023-07-30T10:43:19;24.40;85.30
9901;DHT22;4989;48.772;9.154;2023-07-30T10:48:36;25.00;93.80
9901;DHT22;4989;48.772;9.154;2023-07-30T10:53:48;25.40;93.50
9901;DHT22;4989;48.772;9.154;2023-07-30T10:58:53;26.00;82.10
9901;DHT22;4989;48.772;9.154;2023-07-30T11:03:57;27.00;84.50
9901;DHT22;4989;48.772;9.154;2023-07-30T11:08:59;26.90;78.50
9901;DHT22;4989;48.772;9.154;2023-07-30T11:14:02;25.70;84.80
9901;DHT22;4989;48.772;9.154;2023-07-30T11:19:08;25.30;86.60
9901;DHT22;4989;48.772;9.154;2023-07-30T11:24:12;25.10;86.70
9901;DHT22;4989;48.772;9.154;2023-07-30T11:29:18;24.70;86.00
9901;DHT22;4989;48.772;9.154;2023-07-30T11:34:21;25.60;74.80
9901;DHT22;4989;48.772;9.154;2023-07-30T11:39:24;26.60;80.70
9901;DHT22;4989;48.772;9.154;2023-07-30T11:44:36;26.90;77.40
9901;DHT22;4989;48.772;9.154;2023-07-30T11:49:55;27.20;75.20
9901;DHT22;4989;48.772;9.154;2023-07-30T11:55:03;27.80;71.20
9901;DHT22;4989;48.772;9.154;2023-07-30T12:00:07;27.80;71.00
9901;DHT22;4989;48.772;9.154;2023-07-30T12:16:23;26.20;74.00
9901;DHT22;4989;48.772;9.154;2023-07-30T12:21:26;26.50;70.20
9901;DHT22;4989;48.772;9.154;2023-07-30T12:26:30;27.00;68.30
9901;DHT22;4989;48.772;9.154;2023-07-30T12:31:33;27.60;65.40
9901;DHT22;4989;48.772;9.154;2023-07-30T12:36:35;27.50;64.00
9901;DHT22;4989;48.772;9.154;2023-07-30T12:41:38;26.60;68.70
9901;DHT22;4989;48.772;9.154;2023-07-30T12:46:40;27.10;70.10
9901;DHT22;4989;48.772;9.154;2023-07-30T12:51:42;26.80;70.80
9901;DHT22;4989;48.772;9.154;2023-07-30T12:56:45;26.70;70.70
9901;DHT22;4989;48.772;9.154;2023-07-30T13:01:50;26.70;70.80
9901;DHT22;4989;48.772;9.154;2023-07-30T13:06:52;25.80;71.90
9901;DHT22;4989;48.772;9.154;2023-07-30T13:11:54;25.70;73.40
9901;DHT22;4989;48.772;9.154;2023-07-30T13:17:02;25.50;73.30
9901;DHT22;4989;48.772;9.154;2023-07-30T13:22:09;25.70;73.30
9901;DHT22;4989;48.772;9.154;2023-07-30T13:27:11;26.30;72.30
9901;DHT22;4989;48.772;9.154;2023-07-30T13:32:13;27.10;69.10
9901;DHT22;4989;48.772;9.154;2023-07-30T13:37:15;27.40;68.50
9901;DHT22;4989;48.772;9.154;2023-07-30T13:42:20;27.30;67.30
9901;DHT22;4989;48.772;9.154;2023-07-30T13:47:22;27.40;63.00
9901;DHT22;4989;48.772;9.154;2023-07-30T13:52:25;26.70;68.50
9901;DHT22;4989;48.772;9.154;2023-07-30T13:57:29;27.00;67.60
9901;DHT22;4989;48.772;9.154;2023-07-30T14:02:31;27.20;67.10
9901;DHT22;4989;48.772;9.154;2023-07-30T14:07:33;27.80;60.00
9901;DHT22;4989;48.772;9.154;2023-07-30T14:12:35;27.10;64.30
9901;DHT22;4989;48.772;9.154;2023-07-30T14:23:09;26.30;67.40
9901;DHT22;4989;48.772;9.154;2023-07-30T14:28:12;26.30;68.20
9901;DHT22;4989;48.772;9.154;2023-07-30T14:33:19;26.70;66.70
9901;DHT22;4989;48.772;9.154;2023-07-30T14:38:21;27.00;66.30
9901;DHT22;4989;48.772;9.154;2023-07-30T14:43:24;26.60;66.10
9901;DHT22;4989;48.772;9.154;2023-07-30T14:48:28;26.90;65.40
9901;DHT22;4989;48.772;9.154;2023-07-30T14:53:30;26.70;59.50
9901;DHT22;4989;48.772;9.154;2023-07-30T14:58:35;26.70;65.10
9901;DHT22;4989;48.772;9.154;2023-07-30T15:03:37;26.20;64.10
9901;DHT22;4989;48.772;9.154;2023-07-30T15:08:40;26.40;65.10
9901;DHT22;4989;48.772;9.154;2023-07-30T15:13:42;26.40;65.40
9901;DHT22;4989;48.772;9.154;2023-07-30T15:18:44;26.50;65.40
9901;DHT22;4989;48.772;9.154;2023-07-30T15:23:47;26.50;62.90
9901;DHT22;4989;48.772;9.154;2023-07-30T15:28:49;26.50;64.00
9901;DHT22;4989;48.772;9.154;2023-07-30T15:33:51;26.40;63.20
9901;DHT22;4989;48.772;9.154;2023-07-30T15:38:55;26.00;62.10
9901;DHT22;4989;48.772;9.154;2023-07-30T15:43:57;25.80;62.80
9901;DHT22;4989;48.772;9.154;2023-07-30T15:48:59;25.80;63.00
9901;DHT22;4989;48.772;9.154;2023-07-30T15:54:04;25.90;58.20
9901;DHT22;4989;48.772;9.154;2023-07-30T15:59:06;25.80;62.40
9901;DHT22;4989;48.772;9.154;2023-07-30T16:04:12;25.60;54.90
9901;DHT22;4989;48.772;9.154;2023-07-30T16:09:17;25.00;57.90
9901;DHT22;4989;48.772;9.154;2023-07-30T16:14:20;25.20;62.50
9901;DHT22;4989;48.772;9.154;2023-07-30T16:19:24;25.30;59.20
9901;DHT22;4989;48.772;9.154;2023-07-30T16:24:27;25.40;62.80
9901;DHT22;4989;48.772;9.154;2023-07-30T16:29:29;25.20;63.60
9901;DHT22;4989;48.772;9.154;2023-07-30T16:34:34;24.60;56.60
9901;DHT22;4989;48.772;9.154;2023-07-30T16:39:36;23.90;62.00
9901;DHT22;4989;48.772;9.154;2023-07-30T16:44:39;24.80;63.90
9901;DHT22;4989;48.772;9.154;2023-07-30T16:49:41;25.10;63.40
9901;DHT22;4989;48.772;9.154;2023-07-30T16:54:46;25.10;64.00
9901;DHT22;4989;48.772;9.154;2023-07-30T16:59:48;24.20;55.50
9901;DHT22;4989;48.772;9.154;2023-07-30T17:04:54;24.40;57.60
9901;DHT22;4989;48.772;9.154;2023-07-30T17:09:59;24.30;59.90
9901;DHT22;4989;48.772;9.154;2023-07-30T17:15:07;23.60;55.90
9901;DHT22;4989;48.772;9.154;2023-07-30T17:20:13;24.20;64.20
9901;DHT22;4989;48.772;9.154;2023-07-30T17:25:18;23.90;55.80
9901;DHT22;4989;48.772;9.154;2023-07-30T17:30:20;23.80;57.00
9901;DHT22;4989;48.772;9.154;2023-07-30T17:35:24;24.10;64.40
9901;DHT22;4989;48.772;9.154;2023-07-30T17:40:26;24.10;63.10
9901;DHT22;4989;48.772;9.154;2023-07-30T17:45:29;24.50;63.40
9901;DHT22;4989;48.772;9.154;2023-07-30T17:50:31;24.40;59.80
9901;DHT22;4989;48.772;9.154;2023-07-30T17:55:40;23.70;55.70
9901;DHT22;4989;48.772;9.154;2023-07-30T18:00:46;23.50;63.10
9901;DHT22;4989;48.772;9.154;2023-07-30T18:05:49;24.10;62.20
9901;DHT22;4989;48.772;9.154;2023-07-30T18:10:52;23.30;59.70
9901;DHT22;4989;48.772;9.154;2023-07-30T18:15:57;22.90;59.00
9901;DHT22;4989;48.772;9.154;2023-07-30T18:20:59;22.90;58.20
9901;DHT22;4989;48.772;9.154;2023-07-30T18:26:03;22.60;58.70
9901;DHT22;4989;48.772;9.154;2023-07-30T18:31:06;22.50;59.00
9901;DHT22;4989;48.772;9.154;2023-07-30T18:36:08;22.50;59.60
9901;DHT22;4989;48.772;9.154;2023-07-30T18:41:11;22.60;63.20
9901;DHT22;4989;48.772;9.154;2023-07-30T18:46:14;22.70;59.60
9901;DHT22;4989;48.772;9.154;2023-07-30T18:51:16;22.20;60.60
9901;DHT22;4989;48.772;9.154;2023-07-30T18:56:19;21.80;61.70
9901;DHT22;4989;48.772;9.154;2023-07-30T19:01:21;21.90;62.30
9901;DHT22;4989;48.772;9.154;2023-07-30T19:06:27;21.90;62.40
9901;DHT22;4989;48.772;9.154;2023-07-30T19:11:31;22.00;62.10
9901;DHT22;4989;48.772;9.154;2023-07-30T19:16:33;22.10;61.60
9901;DHT22;4989;48.772;9.154;2023-07-30T19:21:39;21.90;62.20
9901;DHT22;4989;48.772;9.154;2023-07-30T19:26:44;21.80;62.20
9901;DHT22;4989;48.772;9.154;2023-07-30T19:31:48;21.70;62.80
9901;DHT22;4989;48.772;9.154;2023-07-30T19:36:51;21.90;62.40
9901;DHT22;4989;48.772;9.154;2023-07-30T19:41:53;21.60;63.00
9901;DHT22;4989;48.772;9.154;2023-07-30T19:46:55;21.80;62.40
9901;DHT22;4989;48.772;9.154;2023-07-30T19:52:00;21.50;62.70
9901;DHT22;4989;48.772;9.154;2023-07-30T19:57:07;21.20;63.50
9901;DHT22;4989;48.772;9.154;2023-07-30T20:02:09;21.10;63.80
9901;DHT22;4989;48.772;9.154;2023-07-30T20:07:12;21.20;64.30
9901;DHT22;4989;48.772;9.154;2023-07-30T20:12:19;21.70;62.90
9901;DHT22;4989;48.772;9.154;2023-07-30T20:17:22;21.30;63.50
9901;DHT22;4989;48.772;9.154;2023-07-30T20:22:25;21.00;64.40
9901;DHT22;4989;48.772;9.154;2023-07-30T20:27:28;20.70;65.40
9901;DHT22;4989;48.772;9.154;2023-07-30T20:32:30;20.40;65.90
9901;DHT22;4989;48.772;9.154;2023-07-30T20:37:33;20.60;66.00
9901;DHT22;4989;48.772;9.154;2023-07-30T20:42:37;20.90;65.40
9901;DHT22;4989;48.772;9.154;2023-07-30T20:47:39;21.10;65.60
9901;DHT22;4989;48.772;9.154;2023-07-30T20:52:47;21.60;65.40
9901;DHT22;4989;48.772;9.154;2023-07-30T20:57:57;21.70;64.20
9901;DHT22;4989;48.772;9.154;2023-07-30T21:02:59;21.60;65.80
9901;DHT22;4989;48.772;9.154;2023-07-30T21:08:03;22.40;73.40
9901;DHT22;4989;48.772;9.154;2023-07-30T21:13:06;23.00;71.90
9901;DHT22;4989;48.772;9.154;2023-07-30T21:18:12;23.20;68.90
9901;DHT22;4989;48.772;9.154;2023-07-30T21:23:16;23.10;67.90
9901;DHT22;4989;48.772;9.154;2023-07-30T21:28:18;23.10;70.10
9901;DHT22;4989;48.772;9.154;2023-07-30T21:33:21;23.10;70.70
9901;DHT22;4989;48.772;9.154;2023-07-30T21:38:24;23.30;70.10
9901;DHT22;4989;48.772;9.154;2023-07-30T21:43:32;23.30;69.10
9901;DHT22;4989;48.772;9.154;2023-07-30T21:48:34;23.30;70.60
9901;DHT22;4989;48.772;9.154;2023-07-30T21:53:36;23.40;69.50
9901;DHT22;4989;48.772;9.154;2023-07-30T21:58:39;22.80;63.10
9901;DHT22;4989;48.772;9.154;2023-07-30T22:03:41;22.70;63.60
9901;DHT22;4989;48.772;9.154;2023-07-30T22:08:43;22.30;66.40
9901;DHT22;4989;48.772;9.154;2023-07-30T22:13:46;22.30;65.00
9901;DHT22;4989;48.772;9.154;2023-07-30T22:18:48;22.30;65.90
9901;DHT22;4989;48.772;9.154;2023-07-30T22:23:52;21.70;65.60
9901;DHT22;4989;48.772;9.154;2023-07-30T22:28:57;20.50;68.40
9901;DHT22;4989;48.772;9.154;2023-07-30T22:34:02;20.60;69.00
9901;DHT22;4989;48.772;9.154;2023-07-30T22:39:05;21.40;69.80
9901;DHT22;4989;48.772;9.154;2023-07-30T22:44:07;21.60;67.10
9901;DHT22;4989;48.772;9.154;2023-07-30T22:49:12;21.40;66.70
9901;DHT22;4989;48.772;9.154;2023-07-30T22:54:16;20.90;68.50
9901;DHT22;4989;48.772;9.154;2023-07-30T22:59:19;20.00;71.30
9901;DHT22;4989;48.772;9.154;2023-07-30T23:04:21;20.20;71.70
9901;DHT22;4989;48.772;9.154;2023-07-30T23:09:23;21.30;76.50
9901;DHT22;4989;48.772;9.154;2023-07-30T23:14:25;22.00;73.80
9901;DHT22;4989;48.772;9.154;2023-07-30T23:19:30;22.00;73.30
9901;DHT22;4989;48.772;9.154;2023-07-30T23:24:33;22.40;73.90
9901;DHT22;4989;48.772;9.154;2023-07-30T23:29:40;21.60;67.90
9901;DHT22;4989;48.772;9.154;2023-07-30T23:34:42;20.00;72.30
